Terminal Aerodrome Forecast
Issued by NWS

Home | Current Version | Previous Version | Text Only | Print | Product List | Glossary Off
Versions: 1 2 3 4 5 6 7 8 9 10 11 12 13 14 15

000
FTUS43 KEAX 241300 AAA
TAFMKC
TAF AMD
KMKC 241308Z 2413/2512 22008KT 6SM -DZ OVC013
      TEMPO 2413/2415 3SM -RA BR OVC009
     FM241500 17009KT P6SM VCSH BKN025
     FM250000 18008KT 6SM -RA BR BKN017
      TEMPO 2500/2504 4SM RA BR OVC011=

USA.gov is the U.S. government's official web portal to all federal, state and local government web resources and services.